Terminal Aerodrome Forecast
Issued by NWS Amarillo, TX

Home | Current Version | Previous Version | Text Only | Print | Product List | Glossary On
Versions: 1 2 3 4 5 6 7 8 9 10 11 12 13 14
185
FTUS44 KAMA 222324
TAFGUY
TAF
KGUY 222324Z 2300/2324 22011KT P6SM SKC
     FM231300 35012KT P6SM SKC
     FM231800 02021G31KT P6SM SKC=

USA.gov is the U.S. government's official web portal to all federal, state and local government web resources and services.